White Point — IBAE — position and weather

sailwx.info

Track history (hours):
 
Tides and Currents Weather Stations Pressure Air Temp Water Temp Dewpoint Dewpoint Depression Visibility Wind Speed Wind Dir Waves Ship Positions

White Point

Last reported at 2016-Aug-28 16:30 UTC. Time now 2016-Aug-28 16:40 UTC.
Position N 38°13' E 015°17'.

Length 183 m; draft 1.1 m.

Type: Ship (hazmat cat D). MMSI: 247087400.

Date/timePositionNaut miles runAvg speedWind from/ knotsBaromVisibWave heightAir tempDewpointWater temp
2016-Aug-28 16:30N 38°13' E 015°17'0 0.0
2016-Aug-28 15:30N 38°13' E 015°17'0 0.0
2016-Aug-28 14:30N 38°13' E 015°17'0 0.0
2016-Aug-28 13:30N 38°13' E 015°17'0 0.0
2016-Aug-28 12:30N 38°13' E 015°17'0 0.0
2016-Aug-28 11:30N 38°13' E 015°18'0 0.0
2016-Aug-28 10:30N 38°13' E 015°18'0 0.0
2016-Aug-28 09:30N 38°13' E 015°18'0 0.0
2016-Aug-28 08:33N 38°13' E 015°17'0 0.1
2016-Aug-28 07:33N 38°13' E 015°18'6 6.1
2016-Aug-28 06:33N 38°17' E 015°23'1312.9
2016-Aug-28 05:34N 38°20' E 015°39'1111.0
2016-Aug-28 04:33N 38°09' E 015°36'1312.8
2016-Aug-28 03:34N 37°56' E 015°38'1312.4
2016-Aug-28 02:32N 37°52' E 015°53'  
2016-Aug-24 01:33N 38°09' E 016°29'2813.1
2016-Aug-23 23:25N 37°51' E 016°01'1113.0
2016-Aug-23 22:33N 37°51' E 015°47'1312.6
2016-Aug-23 21:33N 37°60' E 015°36'1313.5
2016-Aug-23 20:33N 38°13' E 015°36'7 6.7
2016-Aug-23 19:33N 38°19' E 015°34'1313.3
2016-Aug-23 18:33N 38°14' E 015°18'2 2.3
2016-Aug-23 17:32N 38°13' E 015°16'0 0.0
2016-Aug-23 16:32N 38°13' E 015°16'0 0.0
2016-Aug-23 15:32N 38°13' E 015°16'0 0.0
2016-Aug-23 14:26N 38°13' E 015°16'0 0.0
2016-Aug-23 13:32N 38°13' E 015°16'0 0.0
2016-Aug-23 12:32N 38°13' E 015°16'0 0.0
2016-Aug-23 11:32N 38°13' E 015°16'0 0.0
2016-Aug-23 10:32N 38°13' E 015°16'0 0.0
2016-Aug-23 09:32N 38°13' E 015°16'0 0.0
2016-Aug-23 08:32N 38°13' E 015°16'0 0.0
2016-Aug-23 07:32N 38°13' E 015°16'0 0.0
2016-Aug-23 06:32N 38°13' E 015°16'0 0.0
2016-Aug-23 05:32N 38°13' E 015°16'0 0.0
2016-Aug-22 18:08N 38°13' E 015°16'0 0.7
2016-Aug-22 17:33N 38°13' E 015°16'2 1.5
2016-Aug-22 16:29N 38°13' E 015°18'0 0.1
2016-Aug-22 15:29N 38°13' E 015°18'0 0.0
2016-Aug-22 14:23N 38°13' E 015°18'0 0.0
2016-Aug-22 13:29N 38°13' E 015°18'0 0.0
2016-Aug-22 12:33N 38°13' E 015°18'0 0.0
2016-Aug-22 11:33N 38°13' E 015°18'4 4.5
2016-Aug-22 10:34N 38°17' E 015°17'1514.6
2016-Aug-22 09:33N 38°32' E 015°12'1514.6
2016-Aug-22 08:33N 38°46' E 015°08'7214.3
2016-Aug-22 03:30N 39°50' E 014°25'1614.7
2016-Aug-22 02:23N 40°05' E 014°15'1214.0
2016-Aug-22 01:33N 40°14' E 014°07'1414.2
2016-Aug-22 00:34N 40°23' E 013°52'1414.3
2016-Aug-21 23:33N 40°31' E 013°37'3514.3
2016-Aug-21 21:08N 40°44' E 012°54'11113.9
2016-Aug-21 13:07N 42°03' E 011°09'2613.8
2016-Aug-21 11:14N 42°18' E 010°41'1014.1
2016-Aug-21 10:33N 42°24' E 010°32'1514.0
2016-Aug-21 09:27N 42°35' E 010°16'3612.6
2016-Aug-21 06:34N 43°11' E 010°07'1414.1
2016-Aug-21 05:34N 43°25' E 010°10'1110.5
2016-Aug-21 04:33N 43°34' E 010°18'0 0.2
2016-Aug-21 03:32N 43°34' E 010°18'0 0.0
2016-Aug-21 02:32N 43°34' E 010°18'0 0.0
2016-Aug-21 01:32N 43°34' E 010°18'0 0.0
2016-Aug-21 00:32N 43°34' E 010°18'0 0.0
2016-Aug-20 23:32N 43°34' E 010°18'0 0.0
2016-Aug-20 22:32N 43°34' E 010°18'0 0.0
2016-Aug-20 21:29N 43°34' E 010°18'0 0.0
2016-Aug-20 20:32N 43°34' E 010°18'0 0.0
2016-Aug-20 19:32N 43°34' E 010°18'0 0.0
2016-Aug-20 18:29N 43°34' E 010°18'0 0.0
2016-Aug-20 17:26N 43°34' E 010°18'0 0.0
2016-Aug-20 16:32N 43°34' E 010°18'0 0.0
2016-Aug-20 15:32N 43°34' E 010°18'0 0.0
2016-Aug-20 14:32N 43°34' E 010°18'0 0.0
2016-Aug-20 13:32N 43°34' E 010°18'0 0.0
2016-Aug-20 12:29N 43°34' E 010°18'0 0.0
2016-Aug-20 11:32N 43°34' E 010°18'0 0.0
2016-Aug-20 10:32N 43°34' E 010°18'0 0.0
2016-Aug-20 09:32N 43°34' E 010°18'0 0.0
2016-Aug-20 08:32N 43°34' E 010°18'0 0.0
2016-Aug-20 07:32N 43°34' E 010°18'0 0.0
2016-Aug-20 06:32N 43°34' E 010°18'0 0.0
2016-Aug-20 05:32N 43°34' E 010°18'0 0.0
2016-Aug-20 04:32N 43°34' E 010°18'0 0.0
2016-Aug-20 03:32N 43°34' E 010°18'0 0.0
2016-Aug-20 02:29N 43°34' E 010°18'0 0.0
2016-Aug-20 01:29N 43°34' E 010°18'0 0.0
2016-Aug-20 00:32N 43°34' E 010°18'0 0.0
2016-Aug-19 23:32N 43°34' E 010°18'0 0.0
2016-Aug-19 22:32N 43°34' E 010°18'0 0.0
2016-Aug-19 21:32N 43°34' E 010°18'0 0.0
2016-Aug-19 20:32N 43°34' E 010°18'0 0.0
2016-Aug-19 19:32N 43°34' E 010°18'0 0.0
2016-Aug-19 18:32N 43°34' E 010°18'0 0.0
2016-Aug-19 17:32N 43°34' E 010°18'0 0.0
2016-Aug-19 16:32N 43°34' E 010°18'0 0.0
2016-Aug-19 15:29N 43°34' E 010°18'0 0.0
2016-Aug-19 14:32N 43°34' E 010°18'0 0.0
2016-Aug-19 13:32N 43°34' E 010°18'2 1.8
2016-Aug-19 12:34N 43°32' E 010°17'1110.5
2016-Aug-19 11:33N 43°22' E 010°11'1413.8
2016-Aug-19 10:33N 43°09' E 010°08'1313.3
2016-Aug-19 09:33N 42°56' E 010°04'2612.2
2016-Aug-19 07:24N 42°32' E 010°20'1214.0
2016-Aug-19 06:33N 42°24' E 010°32'  
Track history (hours):
 
Tides and Currents Weather Stations Pressure Air Temp Water Temp Dewpoint Dewpoint Depression Visibility Wind Speed Wind Dir Waves Ship Positions

White Point

Last reported at 2016-Aug-28 16:30 UTC. Time now 2016-Aug-28 16:40 UTC.
Position N 38°13' E 015°17'.

Length 183 m; draft 1.1 m.

Type: Ship (hazmat cat D). MMSI: 247087400.

Date/timePositionNaut miles runAvg speedWind from/ knotsBaromVisibWave heightAir tempDewpointWater temp
2016-Aug-28 16:30N 38°13' E 015°17'0 0.0
2016-Aug-28 15:30N 38°13' E 015°17'0 0.0
2016-Aug-28 14:30N 38°13' E 015°17'0 0.0
2016-Aug-28 13:30N 38°13' E 015°17'0 0.0
2016-Aug-28 12:30N 38°13' E 015°17'0 0.0
2016-Aug-28 11:30N 38°13' E 015°18'0 0.0
2016-Aug-28 10:30N 38°13' E 015°18'0 0.0
2016-Aug-28 09:30N 38°13' E 015°18'0 0.0
2016-Aug-28 08:33N 38°13' E 015°17'0 0.1
2016-Aug-28 07:33N 38°13' E 015°18'6 6.1
2016-Aug-28 06:33N 38°17' E 015°23'1312.9
2016-Aug-28 05:34N 38°20' E 015°39'1111.0
2016-Aug-28 04:33N 38°09' E 015°36'1312.8
2016-Aug-28 03:34N 37°56' E 015°38'1312.4
2016-Aug-28 02:32N 37°52' E 015°53'  
2016-Aug-24 01:33N 38°09' E 016°29'2813.1
2016-Aug-23 23:25N 37°51' E 016°01'1113.0
2016-Aug-23 22:33N 37°51' E 015°47'1312.6
2016-Aug-23 21:33N 37°60' E 015°36'1313.5
2016-Aug-23 20:33N 38°13' E 015°36'7 6.7
2016-Aug-23 19:33N 38°19' E 015°34'1313.3
2016-Aug-23 18:33N 38°14' E 015°18'2 2.3
2016-Aug-23 17:32N 38°13' E 015°16'0 0.0
2016-Aug-23 16:32N 38°13' E 015°16'0 0.0
2016-Aug-23 15:32N 38°13' E 015°16'0 0.0
2016-Aug-23 14:26N 38°13' E 015°16'0 0.0
2016-Aug-23 13:32N 38°13' E 015°16'0 0.0
2016-Aug-23 12:32N 38°13' E 015°16'0 0.0
2016-Aug-23 11:32N 38°13' E 015°16'0 0.0
2016-Aug-23 10:32N 38°13' E 015°16'0 0.0
2016-Aug-23 09:32N 38°13' E 015°16'0 0.0
2016-Aug-23 08:32N 38°13' E 015°16'0 0.0
2016-Aug-23 07:32N 38°13' E 015°16'0 0.0
2016-Aug-23 06:32N 38°13' E 015°16'0 0.0
2016-Aug-23 05:32N 38°13' E 015°16'0 0.0
2016-Aug-22 18:08N 38°13' E 015°16'0 0.7
2016-Aug-22 17:33N 38°13' E 015°16'2 1.5
2016-Aug-22 16:29N 38°13' E 015°18'0 0.1
2016-Aug-22 15:29N 38°13' E 015°18'0 0.0
2016-Aug-22 14:23N 38°13' E 015°18'0 0.0
2016-Aug-22 13:29N 38°13' E 015°18'0 0.0
2016-Aug-22 12:33N 38°13' E 015°18'0 0.0
2016-Aug-22 11:33N 38°13' E 015°18'4 4.5
2016-Aug-22 10:34N 38°17' E 015°17'1514.6
2016-Aug-22 09:33N 38°32' E 015°12'1514.6
2016-Aug-22 08:33N 38°46' E 015°08'7214.3
2016-Aug-22 03:30N 39°50' E 014°25'1614.7
2016-Aug-22 02:23N 40°05' E 014°15'1214.0
2016-Aug-22 01:33N 40°14' E 014°07'1414.2
2016-Aug-22 00:34N 40°23' E 013°52'1414.3
2016-Aug-21 23:33N 40°31' E 013°37'3514.3
2016-Aug-21 21:08N 40°44' E 012°54'11113.9
2016-Aug-21 13:07N 42°03' E 011°09'2613.8
2016-Aug-21 11:14N 42°18' E 010°41'1014.1
2016-Aug-21 10:33N 42°24' E 010°32'1514.0
2016-Aug-21 09:27N 42°35' E 010°16'3612.6
2016-Aug-21 06:34N 43°11' E 010°07'1414.1
2016-Aug-21 05:34N 43°25' E 010°10'1110.5
2016-Aug-21 04:33N 43°34' E 010°18'0 0.2
2016-Aug-21 03:32N 43°34' E 010°18'0 0.0
2016-Aug-21 02:32N 43°34' E 010°18'0 0.0
2016-Aug-21 01:32N 43°34' E 010°18'0 0.0
2016-Aug-21 00:32N 43°34' E 010°18'0 0.0
2016-Aug-20 23:32N 43°34' E 010°18'0 0.0
2016-Aug-20 22:32N 43°34' E 010°18'0 0.0
2016-Aug-20 21:29N 43°34' E 010°18'0 0.0
2016-Aug-20 20:32N 43°34' E 010°18'0 0.0
2016-Aug-20 19:32N 43°34' E 010°18'0 0.0
2016-Aug-20 18:29N 43°34' E 010°18'0 0.0
2016-Aug-20 17:26N 43°34' E 010°18'0 0.0
2016-Aug-20 16:32N 43°34' E 010°18'0 0.0
2016-Aug-20 15:32N 43°34' E 010°18'0 0.0
2016-Aug-20 14:32N 43°34' E 010°18'0 0.0
2016-Aug-20 13:32N 43°34' E 010°18'0 0.0
2016-Aug-20 12:29N 43°34' E 010°18'0 0.0
2016-Aug-20 11:32N 43°34' E 010°18'0 0.0
2016-Aug-20 10:32N 43°34' E 010°18'0 0.0
2016-Aug-20 09:32N 43°34' E 010°18'0 0.0
2016-Aug-20 08:32N 43°34' E 010°18'0 0.0
2016-Aug-20 07:32N 43°34' E 010°18'0 0.0
2016-Aug-20 06:32N 43°34' E 010°18'0 0.0
2016-Aug-20 05:32N 43°34' E 010°18'0 0.0
2016-Aug-20 04:32N 43°34' E 010°18'0 0.0
2016-Aug-20 03:32N 43°34' E 010°18'0 0.0
2016-Aug-20 02:29N 43°34' E 010°18'0 0.0
2016-Aug-20 01:29N 43°34' E 010°18'0 0.0
2016-Aug-20 00:32N 43°34' E 010°18'0 0.0
2016-Aug-19 23:32N 43°34' E 010°18'0 0.0
2016-Aug-19 22:32N 43°34' E 010°18'0 0.0
2016-Aug-19 21:32N 43°34' E 010°18'0 0.0
2016-Aug-19 20:32N 43°34' E 010°18'0 0.0
2016-Aug-19 19:32N 43°34' E 010°18'0 0.0
2016-Aug-19 18:32N 43°34' E 010°18'0 0.0
2016-Aug-19 17:32N 43°34' E 010°18'0 0.0
2016-Aug-19 16:32N 43°34' E 010°18'0 0.0
2016-Aug-19 15:29N 43°34' E 010°18'0 0.0
2016-Aug-19 14:32N 43°34' E 010°18'0 0.0
2016-Aug-19 13:32N 43°34' E 010°18'2 1.8
2016-Aug-19 12:34N 43°32' E 010°17'1110.5
2016-Aug-19 11:33N 43°22' E 010°11'1413.8
2016-Aug-19 10:33N 43°09' E 010°08'1313.3
2016-Aug-19 09:33N 42°56' E 010°04'2612.2
2016-Aug-19 07:24N 42°32' E 010°20'1214.0
2016-Aug-19 06:33N 42°24' E 010°32'  

Dump ship's entire track history